Station Historical Data
Daily Summary for January 13, 2018 Units:  Metric    English   Both
« Previous Day
Next Day »
Daily Weekly Monthly Yearly Custom
  High: Low: Average:
Temperature: 14.1 °C -5.7 °C 2 °C
Dew Point: 13.9 °C -12.4 °C -2.1 °C
Humidity: 99 % 56 % 75 %
Wind Speed: 19.3 km/h 0 km/h 6.1 km/h
Wind Gust: 43.5 km/h - -
Wind:- - SSW
Pressure: 1033.7 hPa 994.8 hPa -
Precipitation: 1.52 mm    
Historical Graphs
 
 
Tabular Data for January 13, 2018
Time Temperature Dew Point Pressure Wind Wind Speed Wind Gust Humidity Rainfall Rate (Hourly)
00:05 13.3 °C 13.1 °C 997.9 hPa East 1.6 km/h 11.3 km/h 99 % 0.76 mm
00:12 13.1 °C 12.9 °C 997.5 hPa Calm   11.3 km/h 99 % 0.76 mm
00:21 12.6 °C 12.2 °C 997.5 hPa Calm   9.7 km/h 98 % 0.76 mm
00:28 12.3 °C 11.9 °C 996.8 hPa ESE 3.2 km/h 11.3 km/h 98 % 0.51 mm
00:42 12.2 °C 12.1 °C 996.2 hPa ESE 1.6 km/h 11.3 km/h 99 % 1.02 mm
00:55 12.4 °C 12.2 °C 995.5 hPa ESE 3.2 km/h 12.9 km/h 99 % 0.76 mm
01:12 12.7 °C 12.5 °C 994.8 hPa East 1.6 km/h 12.9 km/h 99 % 0.51 mm
01:57 14.1 °C 13.9 °C 996.5 hPa South 17.7 km/h 43.5 km/h 99 % 0.51 mm
02:19 10.6 °C 10.2 °C 995.5 hPa WSW 8 km/h 41.8 km/h 98 % 0.51 mm
02:33 10.1 °C 9.8 °C 996.2 hPa WSW 14.5 km/h 25.7 km/h 98 % 0.51 mm
02:44 9.9 °C 9.6 °C 996.2 hPa West 4.8 km/h 25.7 km/h 98 % 0.25 mm
02:54 9.8 °C 9.3 °C 997.2 hPa WSW 1.6 km/h 20.9 km/h 97 % 0 mm
03:12 9.6 °C 9.2 °C 998.2 hPa SW 4.8 km/h 19.3 km/h 97 % 0 mm
03:22 9.5 °C 9.1 °C 998.5 hPa WSW 6.4 km/h 19.3 km/h 97 % 0 mm
03:32 9.4 °C 8.9 °C 999.2 hPa Calm   9.7 km/h 97 % 0 mm
03:41 9.3 °C 8.9 °C 999.5 hPa Calm   11.3 km/h 97 % 0 mm
04:00 8.8 °C 8.2 °C 1000.2 hPa WSW 6.4 km/h 12.9 km/h 96 % 0 mm
04:28 8.2 °C 7.4 °C 1001.2 hPa Calm   20.9 km/h 95 % 0 mm
04:36 8.2 °C 7.4 °C 1001.6 hPa WSW 1.6 km/h 16.1 km/h 95 % 0 mm
04:44 8 °C 7.2 °C 1001.9 hPa WSW 1.6 km/h 25.7 km/h 95 % 0 mm
04:49 7.8 °C 7.1 °C 1001.9 hPa West 4.8 km/h 27.4 km/h 95 % 0 mm
04:56 7.7 °C 6.8 °C 1002.3 hPa SW 17.7 km/h 27.4 km/h 94 % 0 mm
05:18 7.3 °C 6.4 °C 1003.3 hPa WSW 8 km/h 20.9 km/h 94 % 0.25 mm
05:23 7.2 °C 6.3 °C 1003.6 hPa WSW 14.5 km/h 20.9 km/h 94 % 0.25 mm
05:35 6.8 °C 5.9 °C 1004.3 hPa Calm   20.9 km/h 94 % 0.25 mm
06:02 5.9 °C 4.7 °C 1005.6 hPa NW 12.9 km/h 25.7 km/h 92 % 0.25 mm
06:11 5.8 °C 4.6 °C 1006.3 hPa WNW 8 km/h 25.7 km/h 92 % 0.25 mm
06:39 5.1 °C 3.4 °C 1008 hPa WSW 12.9 km/h 24.1 km/h 89 % 0 mm
06:46 4.6 °C 2.7 °C 1008.4 hPa ENE 4.8 km/h 35.4 km/h 88 % 0 mm
07:28 2.7 °C 0.6 °C 1010.4 hPa North 6.4 km/h 24.1 km/h 86 % 0 mm
07:41 2.4 °C 0.3 °C 1011.1 hPa WSW 14.5 km/h 20.9 km/h 86 % 0 mm
07:52 2.3 °C 0.2 °C 1011.7 hPa WSW 1.6 km/h 19.3 km/h 86 % 0 mm
07:57 2.2 °C 0.1 °C 1011.4 hPa West 6.4 km/h 19.3 km/h 86 % 0 mm
08:07 2.1 °C -0.1 °C 1012.1 hPa North 9.7 km/h 19.3 km/h 86 % 0 mm
08:14 1.8 °C -0.6 °C 1012.4 hPa West 16.1 km/h 25.7 km/h 84 % 0 mm
08:28 1.5 °C -1.1 °C 1013.1 hPa North 11.3 km/h 25.7 km/h 83 % 0 mm
08:35 1.3 °C -1.1 °C 1013.1 hPa North 8 km/h 17.7 km/h 84 % 0 mm
08:53 1 °C -1.4 °C 1013.8 hPa North 9.7 km/h 24.1 km/h 84 % 0 mm
08:59 0.9 °C -1.4 °C 1014.1 hPa WNW 8 km/h 24.1 km/h 84 % 0 mm
09:09 0.8 °C -1.7 °C 1014.8 hPa North 16.1 km/h 24.1 km/h 83 % 0 mm
09:15 0.8 °C -1.8 °C 1015.1 hPa WSW 8 km/h 24.1 km/h 83 % 0 mm
09:27 0.7 °C -1.7 °C 1015.5 hPa WSW 3.2 km/h 19.3 km/h 84 % 0 mm
09:44 0.6 °C -1.8 °C 1015.8 hPa WNW 3.2 km/h 17.7 km/h 84 % 0 mm
09:57 0.7 °C -1.7 °C 1016.1 hPa Calm   17.7 km/h 84 % 0 mm
10:02 0.8 °C -1.8 °C 1016.1 hPa North 1.6 km/h 14.5 km/h 83 % 0 mm
10:11 0.8 °C -2.1 °C 1016.5 hPa NE 9.7 km/h 16.1 km/h 81 % 0 mm
10:36 1.3 °C -2.7 °C 1016.8 hPa WSW 19.3 km/h 32.2 km/h 75 % 0 mm
10:41 1.3 °C -2.7 °C 1016.8 hPa North 6.4 km/h 32.2 km/h 75 % 0 mm
10:49 1.3 °C -2.9 °C 1016.8 hPa NW 4.8 km/h 20.9 km/h 73 % 0 mm
11:11 1.3 °C -2.8 °C 1017.2 hPa Calm   19.3 km/h 74 % 0 mm
11:33 1.2 °C -3.1 °C 1017.5 hPa ENE 3.2 km/h 24.1 km/h 73 % 0 mm
11:42 1.1 °C -3.3 °C 1017.5 hPa West 8 km/h 24.1 km/h 72 % 0 mm
11:48 1.2 °C -3.3 °C 1017.8 hPa NW 12.9 km/h 24.1 km/h 72 % 0 mm
11:53 1.1 °C -3.6 °C 1017.8 hPa WNW 3.2 km/h 24.1 km/h 71 % 0 mm
12:06 1.3 °C -3.6 °C 1017.8 hPa NW 14.5 km/h 19.3 km/h 70 % 0 mm
12:19 1.3 °C -3.6 °C 1017.8 hPa WNW 9.7 km/h 24.1 km/h 70 % 0 mm
12:25 1.3 °C -4 °C 1017.8 hPa NNE 8 km/h 24.1 km/h 68 % 0 mm
12:44 1.3 °C -4.1 °C 1018.2 hPa WNW 6.4 km/h 22.5 km/h 67 % 0 mm
12:49 1.4 °C -4.1 °C 1018.5 hPa NW 3.2 km/h 27.4 km/h 67 % 0 mm
13:41 1.3 °C -4.7 °C 1019.5 hPa West 3.2 km/h 27.4 km/h 64 % 0.25 mm
13:47 1.3 °C -4.5 °C 1019.5 hPa WSW 4.8 km/h 22.5 km/h 65 % 0.25 mm
14:25 1.1 °C -5.2 °C 1020.9 hPa NW 6.4 km/h 22.5 km/h 63 % 0 mm
14:31 1 °C -5.4 °C 1021.2 hPa SSW 3.2 km/h 20.9 km/h 62 % 0 mm
14:43 1 °C -5.4 °C 1021.2 hPa WNW 11.3 km/h 20.9 km/h 62 % 0 mm
14:52 1.1 °C -5.4 °C 1021.6 hPa WNW 8 km/h 19.3 km/h 62 % 0 mm
15:06 1.2 °C -5.5 °C 1021.9 hPa North 16.1 km/h 17.7 km/h 61 % 0 mm
15:19 1 °C -5.4 °C 1022.2 hPa North 6.4 km/h 20.9 km/h 62 % 0 mm
16:08 0.5 °C -6.1 °C 1023.6 hPa NW 1.6 km/h 19.3 km/h 61 % 0 mm
16:15 0.3 °C -6.6 °C 1023.9 hPa WSW 3.2 km/h 20.9 km/h 60 % 0 mm
16:28 0.1 °C -6.7 °C 1024.3 hPa WNW 1.6 km/h 29 km/h 60 % 0 mm
16:30 0.1 °C -6.7 °C 1024.3 hPa SW 6.4 km/h 29 km/h 60 % 0 mm
16:46 -0.2 °C -7.3 °C 1024.6 hPa NW 6.4 km/h 25.7 km/h 59 % 0 mm
17:03 -0.6 °C -8 °C 1024.9 hPa WSW 8 km/h 17.7 km/h 57 % 0 mm
17:09 -0.7 °C -8.1 °C 1024.9 hPa SW 4.8 km/h 17.7 km/h 57 % 0 mm
17:20 -0.8 °C -8.4 °C 1025.3 hPa North 4.8 km/h 19.3 km/h 56 % 0 mm
17:26 -0.8 °C -8.5 °C 1025.3 hPa NW 1.6 km/h 19.3 km/h 56 % 0 mm
17:42 -0.9 °C -8.6 °C 1026 hPa WNW 3.2 km/h 19.3 km/h 56 % 0 mm
18:17 -1.5 °C -8.5 °C 1026.6 hPa Calm   19.3 km/h 59 % 0 mm
18:27 -1.7 °C -8.7 °C 1026.6 hPa Calm   17.7 km/h 59 % 0 mm
18:36 -1.8 °C -8.6 °C 1027 hPa NNE 11.3 km/h 22.5 km/h 60 % 0 mm
18:48 -1.9 °C -8.7 °C 1027.3 hPa WNW 8 km/h 22.5 km/h 60 % 0 mm
18:54 -2 °C -8.7 °C 1027.3 hPa NW 1.6 km/h 16.1 km/h 60 % 0 mm
19:21 -2.3 °C -9 °C 1027.7 hPa WNW 3.2 km/h 19.3 km/h 60 % 0 mm
19:27 -2.4 °C -9.1 °C 1028 hPa NW 6.4 km/h 19.3 km/h 60 % 0 mm
19:42 -2.6 °C -9.2 °C 1028 hPa NW 8 km/h 17.7 km/h 60 % 0 mm
19:47 -2.7 °C -9.3 °C 1028 hPa West 3.2 km/h 14.5 km/h 60 % 0 mm
19:52 -2.7 °C -9.2 °C 1028.3 hPa North 6.4 km/h 14.5 km/h 61 % 0 mm
20:19 -3.2 °C -9.4 °C 1029.3 hPa Calm   16.1 km/h 62 % 0 mm
20:28 -3.3 °C -9.6 °C 1029.7 hPa NW 4.8 km/h 12.9 km/h 62 % 0 mm
20:45 -3.6 °C -9.8 °C 1030 hPa North 4.8 km/h 14.5 km/h 62 % 0 mm
21:09 -3.8 °C -10 °C 1030.7 hPa NW 3.2 km/h 14.5 km/h 62 % 0 mm
21:16 -4 °C -10.4 °C 1031 hPa NW 4.8 km/h 19.3 km/h 61 % 0 mm
21:23 -4.1 °C -10.7 °C 1031.4 hPa West 8 km/h 19.3 km/h 60 % 0 mm
21:30 -4.2 °C -10.8 °C 1031.4 hPa NW 9.7 km/h 19.3 km/h 60 % 0 mm
21:36 -4.2 °C -11.2 °C 1031.4 hPa North 8 km/h 22.5 km/h 58 % 0 mm
21:47 -4.3 °C -11.3 °C 1031.7 hPa North 11.3 km/h 22.5 km/h 58 % 0 mm
22:06 -4.7 °C -11.7 °C 1032.4 hPa Calm   20.9 km/h 58 % 0 mm
22:13 -4.8 °C -11.8 °C 1032.7 hPa Calm   17.7 km/h 58 % 0 mm
22:20 -4.8 °C -11.6 °C 1032.7 hPa North 4.8 km/h 17.7 km/h 59 % 0 mm
22:27 -4.9 °C -11.4 °C 1032.7 hPa WNW 3.2 km/h 17.7 km/h 60 % 0 mm
22:33 -5 °C -11.6 °C 1032.7 hPa North 3.2 km/h 14.5 km/h 60 % 0 mm
22:42 -5.1 °C -11.8 °C 1033.1 hPa North 6.4 km/h 14.5 km/h 59 % 0 mm
23:08 -5.3 °C -12.1 °C 1033.4 hPa NW 6.4 km/h 16.1 km/h 59 % 0 mm
23:14 -5.4 °C -12.1 °C 1033.7 hPa ENE 4.8 km/h 16.1 km/h 59 % 0 mm
23:41 -5.7 °C -12.4 °C 1033.7 hPa North 8 km/h 19.3 km/h 59 % 0 mm
23:47 -5.7 °C -12.4 °C 1033.7 hPa NW 4.8 km/h 17.7 km/h 59 % 0 mm
MarylandWx.com
Compliments of Weather Underground - 5.5 mb